Terminal Aerodrome Forecast
Issued by NWS

Home | Current Version | Previous Version | Text Only | Print | Product List | Glossary Off
Versions: 1 2 3 4 5 6 7 8 9 10 11 12 13 14

000
FTUS43 KGRB 281805 AAA
TAFCWA
TAF AMD
KCWA 281805Z 2818/2918 21008G18KT P6SM VCTS SCT050CB BKN150
     FM282100 26008G14KT P6SM SCT150
     FM282300 27006KT P6SM SCT120
     FM291100 27007KT P6SM BKN024
     FM291500 27010G16KT P6SM OVC018 PROB30 2915/2918 5SM -SHRA=

USA.gov is the U.S. government's official web portal to all federal, state and local government web resources and services.